Alamo, Nevada
Current Conditions -  °F | °C
As of 12:58 PM on Monday 24 Nov 2014 (Local Time) from KINS Reporting Station
Clear Clear  
Wind Chill: 59°   Ceiling: Unl
Heat Index: 59°   Visibility: 10mi
Dew Point:   Wind: 1mph
Humidity: 12%   Direction: NA
Pressure: 30.36"   Gusts: NA
Location:  37.36°N, 115.16°W
Report Text: KINS 242058Z AUTO VRB01KT 10SM CLR 15/M14 A3036 RMK AO2 SLP269 T01521140 57010
Loading
Personal Weather Stations






























Interactive Weather Map New forecast layout! Learn more

10-Day Weather Forecast

Advertisements
Track Severe Weather on mobile